Time;durP1;ratioP1;P1;durP2;ratioP2;P2;SDS_P1;SDS_P2;PMS_P1;PMS_P2;Temp;Humidity;BMP_temperature;BMP_pressure;BME280_temperature;BME280_humidity;BME280_pressure;Samples;Min_cycle;Max_cycle;Signal;HPM_P1;HPM_P2
2024/01/19 00:01:11;;;;;;;;;37.71;34.43;;;;;0.52;69.35;101595.09;2033172;28;3605471;-75
2024/01/19 00:02:22;;;;;;;;;39.00;34.67;;;;;0.53;69.21;101609.78;1992706;28;3622096;-75
2024/01/19 00:03:34;;;;;;;;;33.67;29.00;;;;;0.52;69.33;101605.44;2009293;28;3592944;-75
2024/01/19 00:04:46;;;;;;;;;36.67;30.67;;;;;0.51;69.21;101611.44;2025061;28;3601378;-75
2024/01/19 00:05:58;;;;;;;;;36.00;32.33;;;;;0.50;69.06;101609.69;2005169;28;3595447;-75
2024/01/19 00:07:10;;;;;;;;;32.67;29.33;;;;;0.50;69.06;101607.09;2026477;28;3590881;-75
2024/01/19 00:08:22;;;;;;;;;24.33;20.67;;;;;0.50;68.98;101614.88;2025333;28;3579406;-75
2024/01/19 00:09:33;;;;;;;;;34.00;28.33;;;;;0.50;69.67;101618.34;2031598;28;3591902;-75
2024/01/19 00:10:45;;;;;;;;;35.00;31.67;;;;;0.50;68.94;101617.44;2032932;28;3589843;-75
2024/01/19 00:11:57;;;;;;;;;34.67;29.33;;;;;0.51;69.65;101624.38;2031348;28;3583585;-75
2024/01/19 00:13:09;;;;;;;;;30.67;28.00;;;;;0.50;68.90;101620.91;2031203;28;3584674;-75
2024/01/19 00:14:21;;;;;;;;;31.33;30.33;;;;;0.50;69.30;101627.78;2032672;28;3579459;-75
2024/01/19 00:15:34;;;;;;;;;28.00;26.67;;;;;0.50;69.21;101628.69;2032795;28;3595034;-75
2024/01/19 00:16:47;;;;;;;;;38.50;30.17;;;;;0.51;68.95;101629.56;2043549;28;1855583;-75
2024/01/19 00:17:59;;;;;;;;;32.67;28.00;;;;;0.51;68.91;101632.16;1992046;28;3587808;-75
2024/01/19 00:19:12;;;;;;;;;37.43;30.71;;;;;0.52;68.69;101631.31;2031980;28;3601276;-75
2024/01/19 00:20:24;;;;;;;;;32.00;28.33;;;;;0.49;69.39;101632.13;2005613;28;3590871;-75
2024/01/19 00:21:46;;;;;;;;;34.33;25.00;;;;;0.51;69.54;101637.31;2032648;28;3577326;-75
2024/01/19 00:22:57;;;;;;;;;28.33;27.33;;;;;0.51;69.25;101632.16;2013614;28;3583915;-75
2024/01/19 00:24:12;;;;;;;;;36.14;23.14;;;;;0.49;69.15;101631.25;2023664;28;3614178;-75
2024/01/19 00:25:23;;;;;;;;;24.67;24.67;;;;;0.50;68.74;101627.78;1992283;28;3577334;-75
2024/01/19 00:26:35;;;;;;;;;28.00;28.00;;;;;0.49;68.64;101636.41;2032170;28;3590180;-75
2024/01/19 00:27:47;;;;;;;;;31.00;26.67;;;;;0.48;69.04;101632.94;2032794;28;3569356;-75
2024/01/19 00:28:59;;;;;;;;;34.00;27.33;;;;;0.49;68.62;101641.59;2032337;28;3592944;-75
2024/01/19 00:30:11;;;;;;;;;31.33;27.33;;;;;0.49;69.07;101645.06;2031117;28;2859778;-75
2024/01/19 00:31:22;;;;;;;;;32.67;26.00;;;;;0.49;69.33;101642.47;2015555;28;3591890;-75
2024/01/19 00:32:33;;;;;;;;;27.50;25.50;;;;;0.50;69.32;101651.97;2039446;28;1844119;-75
2024/01/19 00:33:46;;;;;;;;;34.67;33.00;;;;;0.50;68.93;101653.66;1991807;28;3602306;-75
2024/01/19 00:34:58;;;;;;;;;29.67;28.00;;;;;0.48;68.64;101642.41;1991926;28;3601289;-75
2024/01/19 00:36:10;;;;;;;;;29.57;27.43;;;;;0.48;68.79;101645.88;2032776;28;3603364;-75
2024/01/19 00:37:22;;;;;;;;;27.67;25.67;;;;;0.47;69.12;101641.53;2009107;28;3584606;-75
2024/01/19 00:38:35;;;;;;;;;27.20;22.60;;;;;0.47;68.99;101653.63;2041527;28;1843497;-75
2024/01/19 00:39:46;;;;;;;;;26.67;26.67;;;;;0.47;69.43;101659.63;2015603;28;3587055;-75
2024/01/19 00:40:58;;;;;;;;;26.00;23.00;;;;;0.46;69.20;101652.75;2031511;28;3577395;-75
2024/01/19 00:42:10;;;;;;;;;30.33;28.67;;;;;0.47;69.40;101651.03;2032840;28;3585691;-75
2024/01/19 00:43:22;;;;;;;;;26.00;25.67;;;;;0.46;69.83;101654.44;2032388;28;3581497;-75
2024/01/19 00:44:34;;;;;;;;;29.33;28.00;;;;;0.46;69.00;101654.44;2031834;28;3589818;-75
2024/01/19 00:45:45;;;;;;;;;34.67;29.00;;;;;0.44;69.84;101652.69;2032177;28;3588774;-75
2024/01/19 00:46:57;;;;;;;;;31.33;30.00;;;;;0.45;69.76;101650.97;2031082;28;3579506;-75
2024/01/19 00:48:09;;;;;;;;;33.33;28.67;;;;;0.43;68.53;101652.66;2028603;28;3606495;-75
2024/01/19 00:49:22;;;;;;;;;33.60;32.80;;;;;0.44;69.08;101654.41;2030996;28;3589814;-75
2024/01/19 00:50:33;;;;;;;;;24.00;22.00;;;;;0.44;69.56;101654.41;2015194;28;2829528;-75
2024/01/19 00:51:45;;;;;;;;;30.00;27.33;;;;;0.44;69.34;101659.59;2021210;28;3588093;-75
2024/01/19 00:52:56;;;;;;;;;31.33;29.33;;;;;0.41;68.80;101652.63;2034716;28;3578357;-75
2024/01/19 00:54:09;;;;;;;;;24.33;22.17;;;;;0.42;69.42;101654.34;2047448;28;2838780;-75
2024/01/19 00:55:21;;;;;;;;;34.67;30.67;;;;;0.42;68.96;101656.94;2010136;28;3583573;-75
2024/01/19 00:56:33;;;;;;;;;35.33;32.33;;;;;0.41;69.43;101664.69;2029259;28;3588789;-75
2024/01/19 00:57:45;;;;;;;;;24.00;24.00;;;;;0.40;69.32;101658.63;2022615;28;3571066;-75
2024/01/19 00:58:58;;;;;;;;;35.67;29.00;;;;;0.39;69.53;101664.66;2030469;28;3588758;-75
2024/01/19 01:00:10;;;;;;;;;34.33;30.00;;;;;0.40;69.46;101657.75;2015866;28;3573149;-75
2024/01/19 01:01:20;;;;;;;;;23.50;21.50;;;;;0.39;69.40;101662.06;2016977;28;2827428;-75
2024/01/19 01:02:32;;;;;;;;;33.33;25.67;;;;;0.40;68.78;101666.38;2008399;28;3599178;-75
2024/01/19 01:03:44;;;;;;;;;29.67;28.33;;;;;0.40;69.06;101665.50;2031220;28;3599193;-75
2024/01/19 01:04:56;;;;;;;;;32.00;25.67;;;;;0.39;68.82;101667.25;2031050;28;3581478;-75
2024/01/19 01:06:08;;;;;;;;;22.33;20.00;;;;;0.40;69.75;101665.50;2032747;28;2826650;-75
2024/01/19 01:07:19;;;;;;;;;32.67;29.33;;;;;0.39;69.12;101659.47;2014541;28;3581494;-75
2024/01/19 01:08:36;;;;;;;;;27.57;26.29;;;;;0.39;68.91;101662.06;2031072;28;3585651;-75
2024/01/19 01:09:48;;;;;;;;;28.67;27.67;;;;;0.39;68.73;101663.78;1991382;28;3580480;-75
2024/01/19 01:11:00;;;;;;;;;29.00;26.33;;;;;0.39;69.10;101663.78;2032032;28;3580512;-75
2024/01/19 01:12:12;;;;;;;;;32.00;27.00;;;;;0.36;69.39;101656.81;2019762;28;3589847;-75
2024/01/19 01:13:24;;;;;;;;;31.00;27.67;;;;;0.36;69.21;101669.75;2030056;28;3594012;-75
2024/01/19 01:14:36;;;;;;;;;27.67;27.67;;;;;0.35;69.37;101670.56;2031712;28;3588788;-75
2024/01/19 01:15:48;;;;;;;;;28.67;28.00;;;;;0.35;69.34;101670.56;2031482;28;3580436;-75
2024/01/19 01:17:00;;;;;;;;;31.67;27.00;;;;;0.33;69.10;101670.53;2014992;28;3590895;-75
2024/01/19 01:18:12;;;;;;;;;36.00;30.67;;;;;0.31;69.28;101674.81;2027847;28;3595065;-75
2024/01/19 01:19:23;;;;;;;;;30.33;28.00;;;;;0.30;69.33;101673.03;2015167;28;3599194;-75
2024/01/19 01:20:36;;;;;;;;;33.40;29.60;;;;;0.29;68.79;101681.66;2012670;28;3584574;-75
2024/01/19 01:21:47;;;;;;;;;30.00;27.33;;;;;0.27;69.01;101692.81;2022905;28;3585640;-75
2024/01/19 01:22:59;;;;;;;;;32.00;29.00;;;;;0.27;69.38;101679.88;2032587;28;3586718;-75
2024/01/19 01:24:11;;;;;;;;;29.33;26.33;;;;;0.25;69.25;101690.16;2029303;28;3577326;-75
2024/01/19 01:25:23;;;;;;;;;28.67;27.00;;;;;0.24;68.65;101693.59;2031261;28;3583644;-75
2024/01/19 01:26:35;;;;;;;;;30.67;28.33;;;;;0.23;69.15;101689.25;2036505;28;3588785;-75
2024/01/19 01:27:47;;;;;;;;;23.33;23.33;;;;;0.21;69.37;101696.97;2002604;28;3580429;-75
2024/01/19 01:29:00;;;;;;;;;26.14;21.86;;;;;0.20;69.38;101702.97;2031538;28;3585680;-75
2024/01/19 01:30:12;;;;;;;;;25.33;23.00;;;;;0.20;69.62;101702.97;2008725;28;3585675;-75
2024/01/19 01:31:24;;;;;;;;;31.00;27.67;;;;;0.20;69.55;101697.78;2031631;28;3602345;-75
2024/01/19 01:32:36;;;;;;;;;30.33;28.33;;;;;0.19;69.51;101697.78;2032318;28;3578372;-75
2024/01/19 01:33:48;;;;;;;;;29.33;25.00;;;;;0.18;69.35;101704.66;2032014;28;3594060;-75
2024/01/19 01:34:59;;;;;;;;;32.33;28.67;;;;;0.18;69.24;101703.75;2018651;28;3592959;-75
2024/01/19 01:36:11;;;;;;;;;30.33;29.33;;;;;0.19;69.14;101710.69;2031521;28;3595043;-75
2024/01/19 01:37:23;;;;;;;;;34.00;30.67;;;;;0.17;69.45;101708.09;2031790;28;3592947;-75
2024/01/19 01:38:35;;;;;;;;;28.00;27.33;;;;;0.17;69.61;101708.09;2031250;28;3595039;-75
2024/01/19 01:39:47;;;;;;;;;28.33;24.33;;;;;0.16;69.74;101708.91;2036581;28;3588820;-75
2024/01/19 01:40:59;;;;;;;;;30.00;26.33;;;;;0.16;69.35;101711.50;2031772;28;3582602;-75
2024/01/19 01:42:11;;;;;;;;;30.67;29.00;;;;;0.17;69.31;101704.63;2031750;28;3580459;-75
2024/01/19 01:43:25;;;;;;;;;33.60;29.00;;;;;0.17;69.33;101710.66;2035963;28;3587726;-75
2024/01/19 01:44:36;;;;;;;;;24.67;23.00;;;;;0.17;69.13;101708.09;2014453;28;3579347;-74
2024/01/19 01:45:48;;;;;;;;;29.33;25.33;;;;;0.17;69.05;101720.13;2033002;28;3573168;-75
2024/01/19 01:47:00;;;;;;;;;32.33;29.33;;;;;0.16;69.80;101716.66;2027357;28;3588790;-75
2024/01/19 01:48:13;;;;;;;;;32.14;26.00;;;;;0.16;69.84;101724.41;2031564;28;3594017;-75
2024/01/19 01:49:25;;;;;;;;;23.33;22.00;;;;;0.16;69.69;101732.19;1984071;28;3588779;-75
2024/01/19 01:50:37;;;;;;;;;35.00;29.33;;;;;0.15;69.62;101730.41;2029143;28;3597113;-75
2024/01/19 01:51:49;;;;;;;;;32.60;29.20;;;;;0.15;69.34;101727.81;2031406;28;3591888;-75
2024/01/19 01:53:01;;;;;;;;;27.67;26.00;;;;;0.14;69.33;101722.63;2029254;28;3596442;-75
2024/01/19 01:54:14;;;;;;;;;30.67;30.00;;;;;0.13;69.08;101729.50;2026350;28;3597121;-75
2024/01/19 01:55:25;;;;;;;;;28.00;25.33;;;;;0.13;69.90;101726.91;2014358;28;3604389;-75
2024/01/19 01:56:37;;;;;;;;;30.67;27.00;;;;;0.12;69.70;101726.88;2007398;28;3586693;-75
2024/01/19 01:57:49;;;;;;;;;25.33;24.33;;;;;0.12;69.43;101726.88;2027836;28;3580437;-75
2024/01/19 01:59:01;;;;;;;;;29.33;26.00;;;;;0.12;69.72;101727.78;2025913;28;3591910;-75
2024/01/19 02:00:16;;;;;;;;;32.67;30.33;;;;;0.12;69.38;101730.34;2027304;28;3587771;-75
2024/01/19 02:01:28;;;;;;;;;32.33;29.67;;;;;0.11;69.87;101728.59;2013912;28;3587723;-75
2024/01/19 02:02:40;;;;;;;;;31.67;26.33;;;;;0.12;69.75;101730.34;2014721;28;3588821;-75
2024/01/19 02:03:54;;;;;;;;;36.33;30.33;;;;;0.12;69.89;101730.34;2014661;28;3600315;-75
2024/01/19 02:05:06;;;;;;;;;26.67;24.67;;;;;0.13;69.42;101729.50;2015018;28;3589846;-75
2024/01/19 02:06:18;;;;;;;;;26.67;22.67;;;;;0.14;69.53;101732.97;2031407;28;3573168;-75
2024/01/19 02:07:30;;;;;;;;;37.00;29.00;;;;;0.13;70.12;101728.63;2031103;28;3601300;-75
2024/01/19 02:08:42;;;;;;;;;25.67;23.33;;;;;0.13;70.02;101732.09;2007878;28;3585687;-75
2024/01/19 02:09:53;;;;;;;;;31.67;27.67;;;;;0.14;69.90;101733.84;2026520;28;3597145;-75
2024/01/19 02:11:06;;;;;;;;;36.33;27.67;;;;;0.14;69.63;101733.84;2031628;28;3620010;-75
2024/01/19 02:12:17;;;;;;;;;29.33;27.33;;;;;0.15;70.01;101726.97;1990982;28;3605493;-75
2024/01/19 02:13:29;;;;;;;;;26.67;24.00;;;;;0.15;69.32;101730.41;2004641;28;3579419;-75
2024/01/19 02:14:42;;;;;;;;;31.33;25.00;;;;;0.16;69.80;101724.41;2030652;28;3603368;-75
2024/01/19 02:15:55;;;;;;;;;34.00;25.00;;;;;0.19;69.68;101726.22;2014902;28;3598167;-75
2024/01/19 02:17:06;;;;;;;;;38.00;32.00;;;;;0.19;69.95;101734.84;2015222;28;3602309;-75
2024/01/19 02:18:18;;;;;;;;;32.67;28.67;;;;;0.20;70.05;101733.13;2006579;28;3602302;-75
2024/01/19 02:19:30;;;;;;;;;26.67;25.00;;;;;0.22;69.75;101734.06;2020540;28;3592263;-75
2024/01/19 02:20:42;;;;;;;;;27.00;26.33;;;;;0.21;69.43;101730.59;2030613;28;3592988;-75
2024/01/19 02:21:54;;;;;;;;;30.00;27.33;;;;;0.22;70.02;101734.06;2008011;28;3596085;-75
2024/01/19 02:23:12;;;;;;;;;28.00;27.00;;;;;0.24;69.46;101741.84;2015503;28;3605459;-75
2024/01/19 02:24:24;;;;;;;;;37.33;30.33;;;;;0.24;69.59;101740.16;2013850;28;3594560;-75
2024/01/19 02:25:36;;;;;;;;;30.40;28.80;;;;;0.24;70.05;101744.44;2026824;28;3598164;-75
2024/01/19 02:26:48;;;;;;;;;24.33;23.67;;;;;0.23;69.82;101738.38;2007538;28;3582515;-75
2024/01/19 02:28:00;;;;;;;;;34.00;27.00;;;;;0.22;69.48;101740.09;2029714;28;3604394;-75
2024/01/19 02:29:11;;;;;;;;;32.33;29.00;;;;;0.20;69.17;101738.28;1999110;28;3605480;-75
2024/01/19 02:30:23;;;;;;;;;29.00;24.00;;;;;0.20;69.70;101749.50;2031666;28;3604779;-75
2024/01/19 02:31:35;;;;;;;;;33.00;24.00;;;;;0.19;69.73;101747.78;2030428;28;3603355;-75
2024/01/19 02:32:47;;;;;;;;;30.67;27.00;;;;;0.18;69.94;101742.56;2029247;28;3605427;-75
2024/01/19 02:33:59;;;;;;;;;23.67;22.67;;;;;0.16;69.82;101746.81;2031987;28;3582527;-75
2024/01/19 02:35:11;;;;;;;;;32.00;28.00;;;;;0.15;69.39;101748.50;2024031;28;3591921;-75
2024/01/19 02:36:23;;;;;;;;;30.00;25.33;;;;;0.15;69.58;101742.50;2029593;28;3597138;-75
2024/01/19 02:37:35;;;;;;;;;31.67;28.67;;;;;0.14;69.10;101743.31;2017854;28;3601639;-75
2024/01/19 02:38:48;;;;;;;;;29.71;26.14;;;;;0.12;69.62;101745.88;2006483;28;3599186;-75
2024/01/19 02:40:00;;;;;;;;;33.33;28.33;;;;;0.11;69.38;101746.69;2006211;28;3601288;-75
2024/01/19 02:41:12;;;;;;;;;32.00;29.00;;;;;0.10;69.60;101752.69;1994074;28;3592955;-75
2024/01/19 02:42:24;;;;;;;;;29.67;28.67;;;;;0.08;69.71;101751.78;2030794;28;3589851;-75
2024/01/19 02:43:35;;;;;;;;;35.00;31.00;;;;;0.07;69.24;101750.91;2031236;28;3593986;-75
2024/01/19 02:44:48;;;;;;;;;35.14;27.29;;;;;0.06;69.54;101748.28;2031594;28;3605442;-75
2024/01/19 02:46:01;;;;;;;;;38.00;32.67;;;;;0.05;69.21;101749.97;2007913;28;3603367;-75
2024/01/19 02:47:12;;;;;;;;;37.00;31.20;;;;;0.05;69.62;101749.13;2026339;28;3595007;-75
2024/01/19 02:48:24;;;;;;;;;38.00;36.67;;;;;0.02;69.90;101755.09;2032767;28;3610640;-75
2024/01/19 02:49:37;;;;;;;;;38.00;34.67;;;;;0.01;69.40;101748.16;2031061;28;3601269;-75
2024/01/19 02:50:48;;;;;;;;;35.00;27.00;;;;;0.02;69.57;101754.19;1986931;28;3605442;-75
2024/01/19 02:52:00;;;;;;;;;36.67;31.67;;;;;0.01;69.66;101758.50;2022420;28;3606492;-75
2024/01/19 02:53:11;;;;;;;;;31.00;25.50;;;;;0.01;69.74;101757.59;2008914;28;2848192;-75
2024/01/19 02:54:23;;;;;;;;;33.33;33.00;;;;;-0.02;70.00;101760.97;2009109;27;3598145;-75
2024/01/19 02:55:35;;;;;;;;;41.20;35.40;;;;;-0.02;69.73;101758.41;2037063;28;3625210;-75
2024/01/19 02:56:47;;;;;;;;;37.80;31.00;;;;;-0.04;70.08;101760.94;2014444;28;3602298;-74
2024/01/19 02:58:00;;;;;;;;;33.43;28.14;;;;;-0.05;69.86;101766.94;2008285;28;3606504;-75
2024/01/19 02:59:12;;;;;;;;;35.33;29.33;;;;;-0.05;69.76;101766.09;2009881;28;3596073;-75
2024/01/19 03:00:24;;;;;;;;;35.00;28.67;;;;;-0.06;69.62;101759.16;2033349;28;3607550;-75
2024/01/19 03:01:36;;;;;;;;;33.67;27.67;;;;;-0.07;69.52;101758.28;1992749;28;3588777;-75
2024/01/19 03:02:48;;;;;;;;;32.67;30.67;;;;;-0.08;69.87;101750.50;2031327;28;3602357;-75
2024/01/19 03:04:00;;;;;;;;;42.67;30.33;;;;;-0.07;69.66;101754.81;2024846;28;3618022;-74
2024/01/19 03:05:12;;;;;;;;;38.33;31.67;;;;;-0.08;69.38;101760.81;2008659;28;3606506;-74
2024/01/19 03:06:24;;;;;;;;;43.33;34.67;;;;;-0.10;69.39;101749.56;2005548;28;3609653;-74
2024/01/19 03:07:36;;;;;;;;;46.80;39.80;;;;;-0.12;69.86;101752.97;2006084;28;3601241;-74
2024/01/19 03:08:48;;;;;;;;;46.33;35.33;;;;;-0.12;69.80;101755.56;2008643;28;3640843;-74
2024/01/19 03:10:00;;;;;;;;;32.00;29.67;;;;;-0.13;70.17;101751.25;2010481;28;3591898;-74
2024/01/19 03:11:12;;;;;;;;;32.67;31.67;;;;;-0.13;69.95;101750.34;2032822;28;3607530;-74
2024/01/19 03:12:23;;;;;;;;;35.67;32.00;;;;;-0.15;69.97;101752.88;2008994;28;3600263;-74
2024/01/19 03:13:36;;;;;;;;;34.29;30.14;;;;;-0.16;69.87;101745.97;2033156;28;3594319;-74
2024/01/19 03:14:48;;;;;;;;;35.33;28.00;;;;;-0.15;70.09;101744.28;2007218;28;3588845;-74
2024/01/19 03:16:04;;;;;;;;;29.00;21.00;;;;;-0.16;69.77;101745.97;2029281;28;2839852;-74
2024/01/19 03:17:15;;;;;;;;;48.33;40.00;;;;;-0.16;69.73;101755.44;1991455;28;3611717;-74
2024/01/19 03:18:26;;;;;;;;;49.00;37.00;;;;;-0.19;69.75;101751.06;1995331;28;2879489;-74
2024/01/19 03:19:38;;;;;;;;;41.67;37.00;;;;;-0.19;70.21;101761.38;2033999;28;3614774;-74
2024/01/19 03:20:50;;;;;;;;;50.20;40.20;;;;;-0.21;70.52;101760.47;2013897;28;3599174;-74
2024/01/19 03:22:02;;;;;;;;;43.60;38.40;;;;;-0.21;69.84;101767.34;2013747;28;3590842;-74
2024/01/19 03:23:14;;;;;;;;;44.00;39.33;;;;;-0.22;70.07;101765.63;2033172;28;3605460;-74
2024/01/19 03:24:26;;;;;;;;;43.67;34.00;;;;;-0.25;70.37;101758.66;2007228;28;3623150;-74
2024/01/19 03:25:37;;;;;;;;;40.20;34.20;;;;;-0.25;69.83;101761.22;1988139;28;2871054;-74
2024/01/19 03:26:48;;;;;;;;;38.80;35.80;;;;;-0.28;69.45;101762.03;2015592;28;2870048;-74
2024/01/19 03:28:01;;;;;;;;;38.57;35.29;;;;;-0.27;69.91;101766.34;2036957;28;3612718;-74
2024/01/19 03:29:13;;;;;;;;;27.33;27.33;;;;;-0.28;69.78;101772.34;2009386;28;3580480;-74
2024/01/19 03:30:25;;;;;;;;;35.40;34.80;;;;;-0.31;70.06;101767.09;2034281;28;3611657;-74
2024/01/19 03:31:37;;;;;;;;;40.67;31.67;;;;;-0.28;70.25;101774.94;2005960;28;3602350;-74
2024/01/19 03:32:50;;;;;;;;;35.14;32.00;;;;;-0.30;69.99;101762.81;2032509;28;3596069;-74
2024/01/19 03:34:03;;;;;;;;;34.43;30.14;;;;;-0.31;70.54;101763.63;2008430;28;3595138;-74
2024/01/19 03:35:15;;;;;;;;;35.33;28.33;;;;;-0.31;70.10;101764.50;2001889;28;3585661;-74
2024/01/19 03:36:27;;;;;;;;;35.33;32.00;;;;;-0.31;69.67;101763.63;2031961;28;3604447;-74
2024/01/19 03:37:39;;;;;;;;;39.33;32.33;;;;;-0.32;69.77;101765.31;2008430;28;3611706;-74
2024/01/19 03:38:50;;;;;;;;;33.33;26.67;;;;;-0.31;70.38;101773.94;2007827;28;3594359;-74
2024/01/19 03:40:06;;;;;;;;;37.33;29.33;;;;;-0.31;70.08;101771.38;2033151;28;3614834;-74
2024/01/19 03:41:17;;;;;;;;;32.67;30.00;;;;;-0.33;69.72;101773.03;1991349;28;3575279;-74
2024/01/19 03:42:29;;;;;;;;;36.00;31.67;;;;;-0.33;70.16;101773.91;2032686;28;3598155;-74
2024/01/19 03:43:44;;;;;;;;;31.33;29.00;;;;;-0.33;70.41;101776.50;2027313;28;3587732;-74
2024/01/19 03:44:55;;;;;;;;;29.33;27.33;;;;;-0.33;70.12;101771.34;2015371;28;3592946;-74
2024/01/19 03:46:07;;;;;;;;;25.00;23.67;;;;;-0.33;70.18;101781.69;2025902;28;3581520;-74
2024/01/19 03:47:18;;;;;;;;;17.00;15.67;;;;;-0.33;70.34;101779.09;2026914;28;3541928;-74
2024/01/19 03:48:30;;;;;;;;;32.00;27.00;;;;;-0.35;70.02;101785.94;2008478;28;3587735;-74
2024/01/19 03:49:42;;;;;;;;;29.67;26.00;;;;;-0.35;70.77;101780.75;2030218;28;3596099;-74
2024/01/19 03:50:53;;;;;;;;;27.00;23.50;;;;;-0.33;69.99;101788.53;2017686;28;2833614;-74
2024/01/19 03:52:07;;;;;;;;;30.33;25.33;;;;;-0.35;70.30;101788.50;2002421;28;2849296;-74
2024/01/19 03:53:18;;;;;;;;;29.00;28.33;;;;;-0.35;70.03;101791.94;2014374;28;3580400;-74
2024/01/19 03:54:32;;;;;;;;;28.67;24.67;;;;;-0.33;70.24;101796.28;2031769;28;3588769;-74
2024/01/19 03:55:44;;;;;;;;;26.60;24.40;;;;;-0.35;70.14;101796.25;2035097;28;2834640;-74
2024/01/19 03:56:58;;;;;;;;;34.33;27.33;;;;;-0.33;70.26;101801.47;2008571;28;3597133;-74
2024/01/19 03:58:09;;;;;;;;;32.67;26.33;;;;;-0.36;70.78;101792.78;2015338;28;3593969;-74
2024/01/19 03:59:21;;;;;;;;;35.00;30.00;;;;;-0.36;69.82;101794.50;2035086;28;3587716;-74
2024/01/19 04:00:33;;;;;;;;;30.33;27.00;;;;;-0.36;70.57;101794.50;2031969;28;3589288;-74
2024/01/19 04:01:45;;;;;;;;;33.33;28.33;;;;;-0.36;70.23;101797.06;2033169;28;3606512;-74
2024/01/19 04:02:57;;;;;;;;;25.33;23.00;;;;;-0.35;70.19;101804.00;2008480;28;3571058;-74
2024/01/19 04:04:08;;;;;;;;;31.67;25.67;;;;;-0.35;70.50;101804.00;2033077;28;3589887;-74
2024/01/19 04:05:21;;;;;;;;;27.67;26.00;;;;;-0.36;70.55;101797.97;2031886;28;3581489;-74
2024/01/19 04:06:32;;;;;;;;;29.00;23.00;;;;;-0.36;70.05;101799.66;2027667;28;3581516;-74
2024/01/19 04:07:44;;;;;;;;;25.67;24.33;;;;;-0.36;70.12;101795.38;2032637;28;3583577;-74
2024/01/19 04:08:56;;;;;;;;;30.00;27.33;;;;;-0.34;70.72;101798.00;2031974;28;3603360;-74
2024/01/19 04:10:08;;;;;;;;;31.33;26.00;;;;;-0.35;70.78;101796.25;2032345;28;3599216;-74
2024/01/19 04:11:20;;;;;;;;;31.67;26.67;;;;;-0.35;70.34;101801.44;2026716;28;3599559;-74
2024/01/19 04:12:32;;;;;;;;;23.80;20.80;;;;;-0.35;70.71;101801.44;2040285;28;1844090;-74
2024/01/19 04:13:45;;;;;;;;;25.83;23.67;;;;;-0.37;70.50;101798.78;2037141;28;1844039;-74
2024/01/19 04:14:57;;;;;;;;;26.33;23.33;;;;;-0.37;71.00;101808.25;1990025;28;3586734;-74
2024/01/19 04:16:10;;;;;;;;;32.00;26.33;;;;;-0.38;70.73;101806.50;2031838;28;3593996;-74
2024/01/19 04:17:22;;;;;;;;;23.67;22.33;;;;;-0.37;70.41;101808.25;2015559;28;2843037;-74
2024/01/19 04:18:33;;;;;;;;;29.67;27.67;;;;;-0.36;70.69;101815.16;2006940;28;3589827;-74
2024/01/19 04:19:45;;;;;;;;;28.00;26.33;;;;;-0.37;70.26;101808.25;2029210;28;3597146;-74
2024/01/19 04:20:57;;;;;;;;;26.00;23.00;;;;;-0.38;70.31;101812.53;2032105;28;3586706;-74
2024/01/19 04:22:09;;;;;;;;;28.00;26.00;;;;;-0.39;70.68;101810.78;2023541;28;3586685;-74
2024/01/19 04:23:20;;;;;;;;;26.67;24.67;;;;;-0.39;70.31;101812.47;2031234;28;3574183;-74
2024/01/19 04:24:32;;;;;;;;;28.67;26.33;;;;;-0.39;70.82;101810.78;2031880;28;3598168;-74
2024/01/19 04:25:44;;;;;;;;;30.33;27.67;;;;;-0.39;70.28;101815.94;2030923;28;3589174;-74
2024/01/19 04:26:56;;;;;;;;;28.20;26.00;;;;;-0.40;70.51;101813.31;2040053;28;1839885;-74
2024/01/19 04:28:08;;;;;;;;;33.00;30.33;;;;;-0.39;70.35;101815.06;1991851;28;3596445;-74
2024/01/19 04:29:20;;;;;;;;;25.67;25.33;;;;;-0.40;71.16;101816.78;2032607;28;3596076;-74
2024/01/19 04:30:32;;;;;;;;;33.33;25.33;;;;;-0.40;70.40;101821.06;2026411;28;3582578;-74
2024/01/19 04:31:43;;;;;;;;;31.00;30.00;;;;;-0.42;70.66;101820.16;2032201;28;2852726;-74
2024/01/19 04:32:55;;;;;;;;;34.67;30.00;;;;;-0.41;70.45;101819.31;2009947;28;3597095;-74
2024/01/19 04:34:06;;;;;;;;;28.75;21.25;;;;;-0.41;70.39;101827.06;2040911;28;1844574;-74
2024/01/19 04:35:18;;;;;;;;;30.00;27.00;;;;;-0.41;70.83;101837.41;1991115;28;3588762;-74
2024/01/19 04:36:31;;;;;;;;;25.50;25.33;;;;;-0.42;70.53;101833.06;2049701;28;2855450;-74
2024/01/19 04:37:43;;;;;;;;;30.86;24.71;;;;;-0.42;70.49;101828.75;2010815;28;3597462;-74
2024/01/19 04:38:55;;;;;;;;;35.67;26.67;;;;;-0.42;70.29;101830.50;2001614;28;3603395;-74
2024/01/19 04:40:09;;;;;;;;;30.71;26.29;;;;;-0.43;70.96;101826.16;2030909;28;3589807;-74
2024/01/19 04:41:21;;;;;;;;;27.20;22.20;;;;;-0.43;70.52;101826.16;2013563;28;1839895;-74
2024/01/19 04:42:33;;;;;;;;;27.33;26.00;;;;;-0.42;70.14;101840.81;2015390;28;2836826;-74
2024/01/19 04:43:44;;;;;;;;;29.33;25.67;;;;;-0.44;70.61;101838.19;2015375;28;3594514;-74
2024/01/19 04:44:56;;;;;;;;;29.33;25.67;;;;;-0.45;70.52;101836.44;2029280;28;3599216;-74
2024/01/19 04:46:08;;;;;;;;;24.00;22.00;;;;;-0.45;70.12;101839.03;2029695;28;3575236;-74
2024/01/19 04:47:19;;;;;;;;;23.00;20.00;;;;;-0.47;70.42;101838.94;2031967;28;2829428;-74
2024/01/19 04:48:31;;;;;;;;;31.00;27.00;;;;;-0.47;70.79;101841.53;2010605;28;3604366;-74
2024/01/19 04:49:43;;;;;;;;;26.00;25.00;;;;;-0.47;70.60;101844.13;2030313;28;3587751;-74
2024/01/19 04:50:55;;;;;;;;;31.00;27.00;;;;;-0.48;70.31;101837.22;2032793;28;3586713;-74
2024/01/19 04:52:08;;;;;;;;;33.17;25.00;;;;;-0.48;70.88;101850.13;2048288;28;2840846;-74
2024/01/19 04:53:20;;;;;;;;;27.00;26.00;;;;;-0.48;70.37;101838.91;2010099;28;3586685;-74
2024/01/19 04:54:31;;;;;;;;;25.67;24.67;;;;;-0.50;70.22;101846.63;2030804;28;3585736;-74
2024/01/19 04:55:43;;;;;;;;;28.33;22.67;;;;;-0.50;70.61;101846.63;2032775;28;3601296;-74
2024/01/19 04:56:55;;;;;;;;;28.33;26.33;;;;;-0.51;70.16;101842.28;2031651;28;3595401;-74
2024/01/19 04:58:07;;;;;;;;;39.00;31.33;;;;;-0.52;70.73;101843.09;2031943;28;3605518;-74
2024/01/19 04:59:19;;;;;;;;;31.67;26.33;;;;;-0.52;70.70;101844.84;2031777;28;3586686;-74
2024/01/19 05:00:31;;;;;;;;;32.00;28.33;;;;;-0.53;70.42;101843.94;2026554;28;3595074;-74
2024/01/19 05:01:44;;;;;;;;;28.57;26.00;;;;;-0.52;70.75;101847.41;2032489;28;3588791;-74
2024/01/19 05:02:56;;;;;;;;;39.33;37.33;;;;;-0.52;70.44;101853.44;2007264;28;3604479;-74
2024/01/19 05:04:08;;;;;;;;;26.67;25.33;;;;;-0.53;70.62;101856.88;1999810;28;3595023;-74
2024/01/19 05:05:20;;;;;;;;;34.33;30.67;;;;;-0.53;70.16;101858.56;2031824;28;3600250;-74
2024/01/19 05:06:32;;;;;;;;;35.67;29.00;;;;;-0.54;70.39;101854.25;2007168;28;3581559;-74
2024/01/19 05:07:45;;;;;;;;;32.29;31.14;;;;;-0.56;70.69;101859.34;2031611;28;3594024;-74
2024/01/19 05:08:57;;;;;;;;;34.33;30.67;;;;;-0.57;70.28;101858.47;2006563;28;3592938;-74
2024/01/19 05:10:09;;;;;;;;;34.67;29.33;;;;;-0.57;70.29;101857.59;2031852;28;3581506;-74
2024/01/19 05:11:21;;;;;;;;;34.00;28.67;;;;;-0.58;70.12;101877.38;2015525;28;3592952;-74
2024/01/19 05:12:33;;;;;;;;;35.67;29.33;;;;;-0.60;70.51;101873.88;2026880;28;3594445;-74
2024/01/19 05:13:45;;;;;;;;;34.00;29.33;;;;;-0.61;70.42;101872.09;2015321;28;3581513;-74
2024/01/19 05:14:56;;;;;;;;;32.00;29.00;;;;;-0.61;70.48;101877.28;2029445;28;3588781;-74
2024/01/19 05:16:09;;;;;;;;;32.67;28.00;;;;;-0.61;70.12;101873.81;2031842;28;3587734;-74
2024/01/19 05:17:21;;;;;;;;;32.33;28.33;;;;;-0.63;70.32;101873.78;2015543;28;3591894;-74
2024/01/19 05:18:32;;;;;;;;;35.33;29.67;;;;;-0.63;70.32;101884.09;2032400;28;3584614;-74
2024/01/19 05:19:45;;;;;;;;;28.86;27.57;;;;;-0.64;70.23;101876.31;2031722;28;3565865;-74
2024/01/19 05:20:58;;;;;;;;;35.86;31.29;;;;;-0.63;70.60;101891.84;2031518;28;3588784;-74
2024/01/19 05:22:10;;;;;;;;;36.00;30.67;;;;;-0.63;70.73;101888.38;2005949;28;3603360;-74